Time;durP1;ratioP1;P1;durP2;ratioP2;P2;SDS_P1;SDS_P2;PMS_P1;PMS_P2;Temp;Humidity;BMP_temperature;BMP_pressure;BME280_temperature;BME280_humidity;BME280_pressure;Samples;Min_cycle;Max_cycle;Signal;HPM_P1;HPM_P2
2023/03/22 00:00:29;;;;;;;30.80;3.70;;;;;;;8.29;100.00;100832.81;5071484;28;20028;-50
2023/03/22 00:02:55;;;;;;;26.98;3.58;;;;;;;8.29;100.00;100826.59;5077778;28;20043;-51
2023/03/22 00:05:20;;;;;;;39.75;3.72;;;;;;;8.28;100.00;100815.03;5082092;28;20074;-51
2023/03/22 00:07:49;;;;;;;30.52;3.60;;;;;;;8.30;100.00;100822.94;5082660;28;20032;-50
2023/03/22 00:10:14;;;;;;;30.30;3.35;;;;;;;8.32;100.00;100826.25;5076941;28;20071;-50
2023/03/22 00:12:40;;;;;;;35.58;3.60;;;;;;;8.33;100.00;100817.22;5075114;28;20052;-50
2023/03/22 00:15:06;;;;;;;55.40;4.60;;;;;;;8.34;100.00;100813.53;5069929;28;20809;-50
2023/03/22 00:17:32;;;;;;;31.58;3.97;;;;;;;8.32;100.00;100805.69;5086330;28;20032;-49
2023/03/22 00:19:57;;;;;;;38.67;5.13;;;;;;;8.33;100.00;100795.78;5076869;28;20021;-52
2023/03/22 00:22:23;;;;;;;31.10;3.60;;;;;;;8.35;100.00;100796.44;5082609;28;20150;-50
2023/03/22 00:24:48;;;;;;;35.38;4.03;;;;;;;8.36;100.00;100795.44;5071260;28;20035;-51
2023/03/22 00:27:14;;;;;;;22.63;4.07;;;;;;;8.36;100.00;100779.34;5072490;28;20063;-50
2023/03/22 00:29:40;;;;;;;31.45;4.55;;;;;;;8.38;100.00;100788.06;5088849;28;20058;-50
2023/03/22 00:32:05;;;;;;;35.08;5.72;;;;;;;8.41;100.00;100782.38;5087421;28;20028;-51
2023/03/22 00:34:31;;;;;;;37.17;5.57;;;;;;;8.44;100.00;100774.00;5089585;28;20037;-50
2023/03/22 00:36:57;;;;;;;27.67;4.80;;;;;;;8.50;100.00;100767.94;5085933;28;20505;-51
2023/03/22 00:39:22;;;;;;;40.55;5.30;;;;;;;8.51;100.00;100772.31;5075609;28;20032;-51
2023/03/22 00:41:47;;;;;;;24.65;3.97;;;;;;;8.52;100.00;100760.56;5081075;28;20075;-51
2023/03/22 00:44:13;;;;;;;36.05;4.80;;;;;;;8.54;100.00;100755.06;5076657;28;20071;-50
2023/03/22 00:46:38;;;;;;;33.15;4.30;;;;;;;8.54;100.00;100745.16;5082931;28;20024;-49
2023/03/22 00:49:04;;;;;;;32.78;5.20;;;;;;;8.55;100.00;100746.00;5092912;28;20028;-49
2023/03/22 00:51:29;;;;;;;28.42;5.15;;;;;;;8.57;100.00;100739.44;5080647;28;20031;-51
2023/03/22 00:53:55;;;;;;;38.38;4.47;;;;;;;8.59;100.00;100725.88;5072478;28;20028;-51
2023/03/22 00:56:21;;;;;;;20.67;4.05;;;;;;;8.62;100.00;100735.41;5090595;28;20052;-49
2023/03/22 00:58:47;;;;;;;37.10;5.25;;;;;;;8.65;100.00;100735.06;5094753;28;20067;-52
2023/03/22 01:01:13;;;;;;;24.60;4.45;;;;;;;8.67;100.00;100739.25;5093558;28;20443;-50
2023/03/22 01:03:39;;;;;;;34.70;5.05;;;;;;;8.69;100.00;100731.03;5092069;28;20028;-50
2023/03/22 01:06:05;;;;;;;42.88;6.35;;;;;;;8.69;100.00;100715.78;5092645;28;20071;-50
2023/03/22 01:08:32;;;;;;;32.50;5.25;;;;;;;8.68;100.00;100715.94;5092370;28;20091;-49
2023/03/22 01:10:58;;;;;;;30.40;5.72;;;;;;;8.65;100.00;100709.06;5084570;28;20089;-50
2023/03/22 01:13:23;;;;;;;42.05;5.85;;;;;;;8.68;100.00;100697.16;5058274;28;20046;-50
2023/03/22 01:15:49;;;;;;;32.92;6.03;;;;;;;8.67;100.00;100695.50;5088306;28;20020;-49
2023/03/22 01:18:15;;;;;;;28.90;5.80;;;;;;;8.68;100.00;100697.16;5091111;28;20208;-50
2023/03/22 01:20:40;;;;;;;36.78;5.32;;;;;;;8.67;100.00;100685.59;5088874;28;20035;-49
2023/03/22 01:23:06;;;;;;;36.58;6.18;;;;;;;8.66;100.00;100683.06;5074011;28;20047;-50
2023/03/22 01:25:31;;;;;;;32.97;4.97;;;;;;;8.64;100.00;100669.03;5072542;28;20029;-50
2023/03/22 01:27:56;;;;;;;34.22;7.07;;;;;;;8.62;100.00;100668.34;5087152;28;20115;-51
2023/03/22 01:30:22;;;;;;;31.60;6.35;;;;;;;8.63;100.00;100664.66;5072068;28;20393;-54
2023/03/22 01:32:47;;;;;;;33.00;4.95;;;;;;;8.62;100.00;100663.00;5073620;28;20391;-50
2023/03/22 01:35:12;;;;;;;22.83;4.55;;;;;;;8.60;100.00;100656.97;5078814;28;20049;-49
2023/03/22 01:37:38;;;;;;;38.92;4.63;;;;;;;8.61;100.00;100655.94;5075838;28;20120;-54
2023/03/22 01:40:04;;;;;;;33.67;5.05;;;;;;;8.62;100.00;100646.91;5089073;28;20058;-52
2023/03/22 01:42:29;;;;;;;32.15;5.32;;;;;;;8.66;100.00;100641.00;5089738;28;20029;-52
2023/03/22 01:45:13;;;;;;;20.02;4.45;;;;;;;8.73;100.00;100639.28;5092050;28;20077;-50
2023/03/22 01:47:40;;;;;;;18.48;4.43;;;;;;;8.92;100.00;100634.50;5085026;28;20086;-50
2023/03/22 01:50:07;;;;;;;23.73;4.22;;;;;;;8.85;100.00;100634.38;5073388;28;20031;-51
2023/03/22 01:52:33;;;;;;;27.73;4.50;;;;;;;8.88;100.00;100628.66;5078199;28;20063;-51
2023/03/22 01:54:58;;;;;;;28.75;4.57;;;;;;;8.92;100.00;100634.50;5054748;28;20036;-51
2023/03/22 01:57:24;;;;;;;37.88;4.53;;;;;;;8.93;100.00;100630.81;5074348;28;20029;-50
2023/03/22 01:59:49;;;;;;;30.10;5.07;;;;;;;8.93;100.00;100631.66;5088206;28;20028;-50
2023/03/22 02:02:18;;;;;;;33.45;5.32;;;;;;;8.95;100.00;100632.31;5071454;28;20032;-49
2023/03/22 02:04:49;;;;;;;35.28;6.13;;;;;;;8.99;100.00;100628.25;5054619;28;20415;-51
2023/03/22 02:07:17;;;;;;;28.20;6.47;;;;;;;9.12;100.00;100634.91;5075849;28;20089;-50
2023/03/22 02:09:42;;;;;;;32.53;7.72;;;;;;;9.24;100.00;100646.88;5082325;28;20016;-50
2023/03/22 02:12:18;;;;;;;25.77;7.03;;;;;;;9.30;100.00;100615.81;5078371;28;20352;-50
2023/03/22 02:15:02;;;;;;;29.80;7.30;;;;;;;9.35;100.00;100606.19;5090905;28;20548;-51
2023/03/22 02:17:40;;;;;;;27.08;7.07;;;;;;;9.34;100.00;100593.75;5073145;28;20449;-50
2023/03/22 02:20:27;;;;;;;25.70;8.52;;;;;;;9.35;100.00;100600.81;5071649;28;20070;-50
2023/03/22 02:23:34;;;;;;;17.75;6.28;;;;;;;9.30;100.00;100600.53;5084616;28;20060;-49
2023/03/22 02:26:18;;;;;;;36.78;7.82;;;;;;;9.23;100.00;100600.41;5073376;28;20048;-50
2023/03/22 02:28:49;;;;;;;30.85;9.07;;;;;;;9.20;100.00;100613.34;5088759;28;20028;-51
2023/03/22 02:31:23;;;;;;;28.25;8.95;;;;;;;9.22;100.00;100603.28;5089448;28;20367;-50
2023/03/22 02:34:14;;;;;;;24.52;8.27;;;;;;;9.22;100.00;100603.28;5065439;28;20438;-51
2023/03/22 02:37:22;;;;;;;29.50;8.18;;;;;;;9.17;100.00;100600.28;5067679;28;20028;-51
2023/03/22 02:39:52;;;;;;;;;;;;;;;9.16;100.00;100599.47;5054126;28;20025;-50
2023/03/22 02:42:32;;;;;;;37.38;8.65;;;;;;;9.18;100.00;100599.28;5071797;28;19990;-50
2023/03/22 02:45:15;;;;;;;30.65;8.13;;;;;;;9.18;100.00;100592.03;5073136;28;20077;-52
2023/03/22 02:47:53;;;;;;;34.15;8.90;;;;;;;9.14;100.00;100579.19;5079647;28;20032;-52
2023/03/22 02:50:30;;;;;;;21.05;7.65;;;;;;;9.14;100.00;100585.38;5070484;28;20498;-51
2023/03/22 02:53:04;;;;;;;36.63;8.03;;;;;;;9.12;100.00;100579.34;5061211;28;20486;-49
2023/03/22 02:55:55;;;;;;;30.17;8.63;;;;;;;9.11;100.00;100580.38;5052444;28;20695;-50
2023/03/22 02:58:25;;;;;;;23.00;7.25;;;;;;;9.11;100.00;100579.50;5059033;28;20028;-51
2023/03/22 03:00:55;;;;;;;26.50;7.60;;;;;;;9.11;100.00;100574.13;5079128;28;20057;-50
2023/03/22 03:03:24;;;;;;;28.25;8.73;;;;;;;9.07;100.00;100575.53;5071967;28;20059;-50
2023/03/22 03:05:54;;;;;;;40.80;9.10;;;;;;;9.03;100.00;100564.31;5090569;28;20028;-51
2023/03/22 03:08:21;;;;;;;35.53;8.25;;;;;;;9.04;100.00;100567.84;5070844;28;20498;-50
2023/03/22 03:10:47;;;;;;;29.38;8.68;;;;;;;9.00;100.00;100567.34;5072632;28;20040;-49
2023/03/22 03:13:17;;;;;;;36.97;10.32;;;;;;;8.96;100.00;100564.19;5084793;28;20021;-50
2023/03/22 03:15:45;;;;;;;36.92;9.52;;;;;;;8.93;100.00;100561.88;5070821;28;20078;-50
2023/03/22 03:18:40;;;;;;;31.20;9.90;;;;;;;8.92;100.00;100570.06;5070790;28;20032;-51
2023/03/22 03:21:33;;;;;;;31.27;11.02;;;;;;;8.88;100.00;100574.97;5070614;28;20029;-50
2023/03/22 03:23:59;;;;;;;35.92;10.05;;;;;;;8.88;100.00;100564.25;5070660;28;20479;-50
2023/03/22 03:26:55;;;;;;;32.40;10.93;;;;;;;8.85;100.00;100569.97;5070490;28;20042;-51
2023/03/22 03:29:31;;;;;;;53.05;12.82;;;;;;;8.82;100.00;100564.09;5051329;28;20063;-51
2023/03/22 03:32:06;;;;;;;33.83;11.70;;;;;;;8.81;100.00;100573.19;5078555;28;20373;-49
2023/03/22 03:34:44;;;;;;;42.72;11.90;;;;;;;8.83;100.00;100574.66;5080789;28;20382;-50
2023/03/22 03:37:19;;;;;;;49.40;12.52;;;;;;;8.82;100.00;100567.66;5081776;28;20036;-50
2023/03/22 03:39:50;;;;;;;35.75;11.68;;;;;;;8.82;100.00;100559.59;5064436;28;20057;-49
2023/03/22 03:42:17;;;;;;;38.38;12.20;;;;;;;8.80;100.00;100569.66;5083434;28;20110;-51
2023/03/22 03:44:43;;;;;;;35.28;11.93;;;;;;;8.79;100.00;100557.25;5066100;28;20020;-50
2023/03/22 03:47:10;;;;;;;36.83;12.10;;;;;;;8.79;100.00;100559.94;5053245;28;20170;-49
2023/03/22 03:49:35;;;;;;;34.28;12.50;;;;;;;8.79;100.00;100570.66;5059727;28;20025;-50
2023/03/22 03:52:03;;;;;;;38.45;12.75;;;;;;;8.81;100.00;100563.28;5071157;28;20043;-52
2023/03/22 03:54:28;;;;;;;35.95;13.65;;;;;;;8.79;100.00;100565.28;5055482;28;20119;-50
2023/03/22 03:56:54;;;;;;;36.83;13.00;;;;;;;8.78;100.00;100563.63;5082565;28;20116;-50
2023/03/22 03:59:19;;;;;;;47.25;14.38;;;;;;;8.76;100.00;100555.75;5073427;28;20509;-49
2023/03/22 04:01:50;;;;;;;37.72;14.00;;;;;;;8.77;100.00;100556.59;5076771;28;20115;-48
2023/03/22 04:04:26;;;;;;;37.25;12.93;;;;;;;8.76;100.00;100550.38;5074600;28;20036;-50
2023/03/22 04:06:56;;;;;;;43.03;13.85;;;;;;;8.77;100.00;100556.59;5084558;28;20035;-50
2023/03/22 04:09:33;;;;;;;38.80;13.50;;;;;;;8.75;100.00;100553.25;5087022;28;20020;-49
2023/03/22 04:11:59;;;;;;;52.07;14.67;;;;;;;8.76;100.00;100544.19;5085552;28;20028;-49
2023/03/22 04:14:25;;;;;;;46.45;12.27;;;;;;;8.79;100.00;100541.13;5074152;28;20135;-50
2023/03/22 04:16:51;;;;;;;37.85;12.23;;;;;;;8.78;100.00;100542.16;5067355;28;20030;-50
2023/03/22 04:19:17;;;;;;;31.23;12.68;;;;;;;8.78;100.00;100542.16;5082406;28;20538;-51
2023/03/22 04:21:42;;;;;;;41.13;11.88;;;;;;;8.80;100.00;100556.25;5084762;28;20363;-49
2023/03/22 04:24:08;;;;;;;42.97;13.10;;;;;;;8.80;100.00;100545.50;5083065;28;20058;-50
2023/03/22 04:26:34;;;;;;;47.38;13.15;;;;;;;8.80;100.00;100550.88;5077744;28;20084;-49
2023/03/22 04:29:01;;;;;;;47.38;12.43;;;;;;;8.82;100.00;100537.25;5090167;28;20359;-49
2023/03/22 04:31:28;;;;;;;49.28;12.80;;;;;;;8.81;100.00;100520.34;5084166;28;20043;-49
2023/03/22 04:33:55;;;;;;;32.22;11.07;;;;;;;8.82;100.00;100527.41;5090952;28;20044;-50
2023/03/22 04:36:24;;;;;;;35.17;10.90;;;;;;;8.82;100.00;100532.75;5074843;28;20075;-51
2023/03/22 04:38:50;;;;;;;34.35;10.85;;;;;;;8.84;100.00;100524.50;5035369;28;20048;-50
2023/03/22 04:41:16;;;;;;;37.45;10.27;;;;;;;8.83;100.00;100515.63;5071132;28;20090;-50
2023/03/22 04:43:45;;;;;;;35.97;10.07;;;;;;;8.84;100.00;100525.34;5052698;28;20104;-50
2023/03/22 04:46:12;;;;;;;38.22;10.82;;;;;;;8.84;100.00;100513.78;5071389;28;20119;-50
2023/03/22 04:48:39;;;;;;;36.30;9.93;;;;;;;8.83;100.00;100512.94;5053727;28;20060;-50
2023/03/22 04:51:06;;;;;;;30.08;10.10;;;;;;;8.84;100.00;100514.59;5071465;28;20029;-52
2023/03/22 04:53:32;;;;;;;31.40;9.47;;;;;;;8.86;100.00;100512.59;5071631;28;20496;-50
2023/03/22 04:55:57;;;;;;;36.03;8.65;;;;;;;8.87;100.00;100513.41;5090206;28;20035;-50
2023/03/22 04:58:24;;;;;;;36.92;8.50;;;;;;;8.86;100.00;100507.22;5090620;28;20501;-50
2023/03/22 05:00:51;;;;;;;31.48;9.60;;;;;;;8.89;100.00;100500.66;5089423;28;20348;-50
2023/03/22 05:03:20;;;;;;;31.38;8.27;;;;;;;8.89;100.00;100501.50;5082262;28;20442;-50
2023/03/22 05:05:58;;;;;;;40.03;8.63;;;;;;;8.89;100.00;100497.97;5071076;28;20028;-50
2023/03/22 05:08:24;;;;;;;34.17;8.02;;;;;;;8.92;100.00;100487.72;5090372;28;20115;-50
2023/03/22 05:10:51;;;;;;;29.52;7.40;;;;;;;8.94;100.00;100488.38;5085585;28;20035;-50
2023/03/22 05:13:18;;;;;;;31.63;7.47;;;;;;;8.95;100.00;100484.69;5070490;28;20426;-51
2023/03/22 05:15:44;;;;;;;30.98;6.82;;;;;;;8.95;100.00;100487.38;5071682;28;20025;-51
2023/03/22 05:18:10;;;;;;;27.45;6.38;;;;;;;8.96;100.00;100486.34;5040026;28;20040;-50
2023/03/22 05:20:35;;;;;;;21.40;7.10;;;;;;;8.98;100.00;100489.69;5070495;28;20028;-50
2023/03/22 05:23:01;;;;;;;33.85;6.20;;;;;;;8.98;100.00;100478.97;5061903;28;20318;-50
2023/03/22 05:25:27;;;;;;;30.90;5.82;;;;;;;8.96;100.00;100480.97;5074708;28;20021;-50
2023/03/22 05:27:53;;;;;;;25.83;5.55;;;;;;;8.94;100.00;100461.53;5080761;28;20502;-51
2023/03/22 05:30:19;;;;;;;31.23;5.78;;;;;;;8.94;100.00;100466.91;5085088;28;20036;-49
2023/03/22 05:32:44;;;;;;;19.27;5.55;;;;;;;8.93;100.00;100467.94;5075944;28;20437;-50
2023/03/22 05:35:10;;;;;;;23.77;4.80;;;;;;;8.93;100.00;100465.25;5073192;28;20512;-50
2023/03/22 05:37:37;;;;;;;24.65;5.38;;;;;;;8.96;100.00;100464.88;5078073;28;20078;-49
2023/03/22 05:40:04;;;;;;;29.38;5.22;;;;;;;8.94;100.00;100460.69;5064232;28;20089;-50
2023/03/22 05:42:30;;;;;;;33.55;5.35;;;;;;;8.92;100.00;100458.19;5078827;28;20115;-51
2023/03/22 05:44:55;;;;;;;25.38;5.47;;;;;;;8.92;100.00;100458.19;5079563;28;20123;-50
2023/03/22 05:47:21;;;;;;;21.33;4.93;;;;;;;8.92;100.00;100458.19;5089683;28;20161;-50
2023/03/22 05:49:46;;;;;;;21.98;4.13;;;;;;;8.92;100.00;100442.09;5081635;28;20032;-52
2023/03/22 05:52:11;;;;;;;17.13;3.42;;;;;;;8.93;100.00;100462.56;5074732;28;20055;-50
2023/03/22 05:54:37;;;;;;;20.88;4.20;;;;;;;8.95;100.00;100452.47;5084407;28;20036;-50
2023/03/22 05:57:02;;;;;;;27.83;3.72;;;;;;;8.93;100.00;100449.13;5072861;28;20044;-51
2023/03/22 05:59:28;;;;;;;32.03;4.95;;;;;;;8.95;100.00;100460.53;5056864;28;20390;-50
2023/03/22 06:01:53;;;;;;;32.47;3.20;;;;;;;8.96;100.00;100461.38;5085931;28;20325;-50
2023/03/22 06:04:19;;;;;;;28.25;4.97;;;;;;;8.99;100.00;100458.31;5082100;28;20116;-50
2023/03/22 06:06:45;;;;;;;23.50;3.88;;;;;;;8.96;100.00;100451.47;5077376;28;20052;-50
2023/03/22 06:09:11;;;;;;;19.75;4.03;;;;;;;8.98;100.00;100452.13;5079131;28;20071;-50
2023/03/22 06:11:36;;;;;;;18.17;5.30;;;;;;;8.98;100.00;100451.28;5082195;28;20059;-49
2023/03/22 06:14:01;;;;;;;24.90;4.30;;;;;;;9.04;100.00;100455.09;5083336;28;20370;-51
2023/03/22 06:16:27;;;;;;;33.55;5.35;;;;;;;8.99;100.00;100448.41;5077228;28;20036;-51
2023/03/22 06:18:52;;;;;;;35.30;4.68;;;;;;;8.99;100.00;100447.56;5085310;28;20432;-50
2023/03/22 06:21:18;;;;;;;19.80;3.60;;;;;;;9.01;100.00;100440.19;5076786;28;20032;-49
2023/03/22 06:23:43;;;;;;;28.92;4.90;;;;;;;9.01;100.00;100450.91;5082803;28;20478;-50
2023/03/22 06:26:12;;;;;;;30.85;4.90;;;;;;;9.00;100.00;100443.88;5082243;28;20490;-50
2023/03/22 06:28:37;;;;;;;32.22;3.67;;;;;;;9.02;100.00;100457.94;5079469;28;20059;-51
2023/03/22 06:31:07;;;;;;;34.20;3.85;;;;;;;9.01;100.00;100456.28;5081125;28;20028;-50
2023/03/22 06:33:34;;;;;;;21.50;4.10;;;;;;;9.02;100.00;100442.66;5081510;28;20036;-51
2023/03/22 06:36:00;;;;;;;31.98;3.33;;;;;;;9.01;100.00;100449.06;5059148;28;20033;-49
2023/03/22 06:38:26;;;;;;;35.13;4.13;;;;;;;9.02;100.00;100453.41;5074853;28;20039;-52
2023/03/22 06:40:51;;;;;;;23.80;4.18;;;;;;;9.03;100.00;100451.59;5073807;28;20021;-51
2023/03/22 06:43:17;;;;;;;23.98;4.20;;;;;;;9.04;100.00;100453.25;5077945;28;20039;-54
2023/03/22 06:45:44;;;;;;;31.00;3.63;;;;;;;9.06;100.00;100437.78;5073922;28;20032;-52
2023/03/22 06:48:10;;;;;;;36.83;5.53;;;;;;;9.14;100.00;100467.25;5075597;28;20428;-50
2023/03/22 06:50:37;;;;;;;33.42;4.32;;;;;;;9.19;100.00;100434.50;5087169;28;20240;-50
2023/03/22 06:53:03;;;;;;;28.98;3.92;;;;;;;9.16;100.00;100464.34;5086511;28;20028;-51
2023/03/22 06:55:32;;;;;;;25.42;3.63;;;;;;;9.21;100.00;100429.75;5080552;28;20506;-52
2023/03/22 06:57:58;;;;;;;35.47;3.78;;;;;;;9.29;100.00;100443.09;5090050;28;20111;-49
2023/03/22 07:00:23;;;;;;;29.63;4.00;;;;;;;9.30;100.00;100434.03;5073653;28;20441;-52
2023/03/22 07:02:49;;;;;;;31.13;4.20;;;;;;;9.30;100.00;100428.66;5070823;28;20135;-51
2023/03/22 07:05:14;;;;;;;32.45;3.47;;;;;;;9.29;100.00;100435.03;5079322;28;20025;-50
2023/03/22 07:07:40;;;;;;;36.03;4.55;;;;;;;9.32;100.00;100441.88;5082061;28;20025;-51
2023/03/22 07:10:06;;;;;;;33.67;4.45;;;;;;;9.31;100.00;100440.22;5071617;28;20100;-50
2023/03/22 07:12:32;;;;;;;19.73;2.70;;;;;;;9.29;100.00;100439.56;5069907;28;20024;-51
2023/03/22 07:14:57;;;;;;;21.08;3.70;;;;;;;9.26;100.00;100446.13;5076186;28;20042;-51
2023/03/22 07:17:23;;;;;;;24.17;3.60;;;;;;;9.25;100.00;100441.81;5071317;28;20131;-49
2023/03/22 07:19:48;;;;;;;33.20;4.32;;;;;;;9.24;100.00;100440.09;5075038;28;20028;-51
2023/03/22 07:22:14;;;;;;;39.30;4.07;;;;;;;9.24;100.00;100456.22;5084855;28;20031;-51
2023/03/22 07:24:40;;;;;;;27.13;3.50;;;;;;;9.26;100.00;100443.44;5071857;28;20056;-49
2023/03/22 07:27:06;;;;;;;29.55;3.50;;;;;;;9.27;100.00;100447.81;5070250;28;20115;-50
2023/03/22 07:29:31;;;;;;;32.08;3.58;;;;;;;9.33;100.00;100443.56;5069698;28;20370;-50
2023/03/22 07:31:56;;;;;;;31.00;3.28;;;;;;;9.33;100.00;100457.00;5070333;28;20025;-52
2023/03/22 07:34:22;;;;;;;19.25;4.00;;;;;;;9.29;100.00;100437.72;5077401;28;20037;-53
2023/03/22 07:36:47;;;;;;;26.10;3.67;;;;;;;9.31;100.00;100451.78;5076606;28;20146;-51
2023/03/22 07:39:12;;;;;;;25.88;4.25;;;;;;;9.34;100.00;100446.06;5083140;28;20445;-51
2023/03/22 07:41:38;;;;;;;25.65;4.07;;;;;;;9.29;100.00;100471.78;5087781;28;20115;-51
2023/03/22 07:44:05;;;;;;;32.65;3.78;;;;;;;9.30;100.00;100450.13;5076091;28;20150;-50
2023/03/22 07:46:31;;;;;;;26.90;3.10;;;;;;;9.25;100.00;100449.03;5078629;28;20039;-50
2023/03/22 07:48:56;;;;;;;28.13;3.35;;;;;;;9.19;100.00;100447.91;5090754;28;20031;-52
2023/03/22 07:51:22;;;;;;;24.27;3.35;;;;;;;9.23;100.00;100454.56;5083724;28;20074;-50
2023/03/22 07:53:48;;;;;;;28.55;3.90;;;;;;;9.20;100.00;100450.41;5080443;28;20035;-51
2023/03/22 07:56:13;;;;;;;38.47;5.07;;;;;;;9.18;100.00;100448.91;5070750;28;20040;-50
2023/03/22 07:58:38;;;;;;;29.27;5.55;;;;;;;9.08;100.00;100456.38;5070971;28;20032;-51
2023/03/22 08:01:07;;;;;;;33.53;4.07;;;;;;;8.96;100.00;100464.88;5084399;28;20059;-51
2023/03/22 08:03:33;;;;;;;31.30;4.40;;;;;;;8.92;100.00;100468.91;5079370;28;20356;-49
2023/03/22 08:06:02;;;;;;;31.83;3.90;;;;;;;8.89;100.00;100469.28;5075274;28;20142;-50
2023/03/22 08:08:27;;;;;;;;;;;;;;;8.86;100.00;100491.13;5075632;28;20059;-50
2023/03/22 08:10:52;;;;;;;32.63;4.63;;;;;;;8.81;100.00;100482.78;5080294;28;19963;-51
2023/03/22 08:13:17;;;;;;;29.15;5.50;;;;;;;8.73;100.00;100486.34;5091360;28;20032;-54
2023/03/22 08:15:43;;;;;;;29.38;4.53;;;;;;;8.71;100.00;100487.53;5089031;28;20024;-52
2023/03/22 08:18:08;;;;;;;39.25;4.82;;;;;;;8.67;100.00;100492.44;5081806;28;20489;-53
2023/03/22 08:20:34;;;;;;;29.90;4.75;;;;;;;8.62;100.00;100489.44;5082505;28;20024;-52
2023/03/22 08:22:59;;;;;;;33.08;3.78;;;;;;;8.64;100.00;100484.75;5072343;28;20027;-52
2023/03/22 08:25:25;;;;;;;33.78;4.68;;;;;;;8.64;100.00;100481.25;5073997;28;20486;-52
2023/03/22 08:27:50;;;;;;;28.80;4.50;;;;;;;8.61;100.00;100486.94;5072920;28;20032;-53
2023/03/22 08:30:20;;;;;;;31.02;4.22;;;;;;;8.60;100.00;100490.63;5072772;28;20078;-54
2023/03/22 08:32:46;;;;;;;47.35;5.72;;;;;;;8.58;100.00;100493.50;5086004;28;20028;-50
2023/03/22 08:35:11;;;;;;;38.47;5.05;;;;;;;8.61;100.00;100476.19;5078645;28;20506;-53
2023/03/22 08:37:36;;;;;;;33.97;4.55;;;;;;;8.62;100.00;100484.09;5073424;28;20020;-53
2023/03/22 08:40:06;;;;;;;37.65;5.53;;;;;;;8.59;100.00;100479.09;5069826;28;20100;-51
2023/03/22 08:42:31;;;;;;;35.25;5.95;;;;;;;8.61;100.00;100493.16;5078767;28;20040;-51
2023/03/22 08:44:56;;;;;;;36.30;4.05;;;;;;;8.62;100.00;100489.44;5066563;28;20036;-51
2023/03/22 08:47:22;;;;;;;23.90;4.45;;;;;;;8.61;100.00;100481.56;5070601;28;20442;-51
2023/03/22 08:49:47;;;;;;;35.13;4.88;;;;;;;8.57;100.00;100487.28;5081360;28;20036;-52
2023/03/22 08:52:12;;;;;;;33.10;4.88;;;;;;;8.54;100.00;100484.16;5083009;28;20056;-52
2023/03/22 08:54:38;;;;;;;37.53;5.43;;;;;;;8.53;100.00;100486.00;5080934;28;20540;-50
2023/03/22 08:57:03;;;;;;;41.25;5.03;;;;;;;8.60;100.00;100490.63;5074539;28;20033;-50
2023/03/22 08:59:29;;;;;;;32.88;4.70;;;;;;;8.57;100.00;100497.19;5057817;28;20028;-50
2023/03/22 09:01:54;;;;;;;36.38;4.60;;;;;;;8.59;100.00;100488.97;5079222;28;20484;-51
2023/03/22 09:04:20;;;;;;;40.83;4.32;;;;;;;8.63;100.00;100492.97;5085519;28;20062;-52
2023/03/22 09:06:45;;;;;;;32.08;5.15;;;;;;;8.62;100.00;100494.00;5083997;28;20137;-51
2023/03/22 09:09:11;;;;;;;38.25;4.65;;;;;;;8.61;100.00;100497.66;5075358;28;20500;-49
2023/03/22 09:11:39;;;;;;;38.22;5.00;;;;;;;8.60;100.00;100482.59;5080458;28;20086;-51
2023/03/22 09:14:04;;;;;;;35.72;5.20;;;;;;;8.64;100.00;100489.28;5092187;28;20111;-52
2023/03/22 09:16:30;;;;;;;40.90;5.75;;;;;;;8.64;100.00;100498.16;5087466;28;20179;-49
2023/03/22 09:18:55;;;;;;;32.35;5.35;;;;;;;8.61;100.00;100503.88;5075656;28;20066;-54
2023/03/22 09:21:21;;;;;;;27.60;5.57;;;;;;;8.60;100.00;100498.69;5085568;28;20031;-51
2023/03/22 09:23:46;;;;;;;44.65;5.65;;;;;;;8.58;100.00;100520.31;5091081;28;20111;-51
2023/03/22 09:26:12;;;;;;;31.45;4.95;;;;;;;8.56;100.00;100509.78;5089215;28;20035;-51
2023/03/22 09:28:37;;;;;;;38.35;4.90;;;;;;;8.60;100.00;100494.16;5075043;28;20333;-50
2023/03/22 09:31:05;;;;;;;25.95;5.30;;;;;;;8.61;100.00;100511.06;5082539;28;20027;-50
2023/03/22 09:33:31;;;;;;;25.23;4.78;;;;;;;8.61;100.00;100497.66;5069012;28;20517;-54
2023/03/22 09:35:56;;;;;;;26.70;5.25;;;;;;;8.61;100.00;100508.41;5071902;28;20107;-51
2023/03/22 09:38:23;;;;;;;44.03;5.80;;;;;;;8.63;100.00;100501.00;5084711;28;20043;-53
2023/03/22 09:41:01;;;;;;;30.58;5.60;;;;;;;8.68;100.00;100515.56;5073953;28;20037;-54
2023/03/22 09:43:33;;;;;;;32.53;5.25;;;;;;;8.66;100.00;100516.75;5083313;28;20134;-50
2023/03/22 09:45:59;;;;;;;39.58;5.85;;;;;;;8.66;100.00;100506.00;5058468;28;20119;-53
2023/03/22 09:48:31;;;;;;;35.42;5.10;;;;;;;8.66;100.00;100506.88;5071821;28;20025;-54
2023/03/22 09:50:56;;;;;;;30.63;4.85;;;;;;;8.66;100.00;100508.69;5071640;28;20032;-50
2023/03/22 09:53:23;;;;;;;31.38;5.65;;;;;;;8.65;100.00;100510.56;5059057;28;20035;-53
2023/03/22 09:56:06;;;;;;;27.25;6.05;;;;;;;8.67;100.00;100507.69;5068649;28;20043;-50
2023/03/22 09:58:43;;;;;;;24.08;5.53;;;;;;;8.69;100.00;100508.34;5092098;28;20082;-49
2023/03/22 10:01:46;;;;;;;30.25;6.32;;;;;;;8.70;100.00;100512.72;5091799;28;20051;-51
2023/03/22 10:04:20;;;;;;;34.17;5.28;;;;;;;8.72;100.00;100524.09;5091801;28;20031;-51
2023/03/22 10:06:50;;;;;;;27.10;5.88;;;;;;;8.69;100.00;100527.13;5072203;28;20031;-53
2023/03/22 10:09:24;;;;;;;36.08;5.50;;;;;;;8.73;100.00;100515.03;5091000;28;20024;-53
2023/03/22 10:12:19;;;;;;;32.90;5.43;;;;;;;8.75;100.00;100513.00;5073495;28;20035;-53
2023/03/22 10:14:49;;;;;;;44.58;5.85;;;;;;;8.74;100.00;100508.63;5073348;28;20139;-51
2023/03/22 10:17:17;;;;;;;27.52;6.10;;;;;;;8.76;100.00;100509.31;5086948;28;20100;-49
2023/03/22 10:19:53;;;;;;;37.65;5.57;;;;;;;8.81;100.00;100495.34;5070978;28;20125;-50
2023/03/22 10:22:23;;;;;;;32.45;5.15;;;;;;;8.80;100.00;100489.16;5057282;28;20427;-50
2023/03/22 10:24:50;;;;;;;23.33;5.10;;;;;;;8.83;100.00;100478.06;5062325;28;20045;-49
2023/03/22 10:27:18;;;;;;;28.70;5.65;;;;;;;8.87;100.00;100476.69;5052990;28;20443;-50
2023/03/22 10:29:53;;;;;;;26.10;5.68;;;;;;;8.91;100.00;100487.91;5070732;28;20020;-50
2023/03/22 10:32:23;;;;;;;34.63;5.20;;;;;;;8.96;100.00;100483.66;5063004;28;20043;-48
2023/03/22 10:34:50;;;;;;;32.17;5.03;;;;;;;8.99;100.00;100480.63;5090572;28;20488;-49
2023/03/22 10:37:19;;;;;;;24.65;4.72;;;;;;;9.07;100.00;100468.97;5090990;28;20020;-50
2023/03/22 10:39:48;;;;;;;31.02;5.45;;;;;;;9.11;100.00;100488.22;5072636;28;20028;-49
2023/03/22 10:42:20;;;;;;;24.35;4.65;;;;;;;9.13;100.00;100472.78;5089255;28;20161;-50
2023/03/22 10:45:12;;;;;;;24.60;4.88;;;;;;;9.20;100.00;100471.03;5072659;28;20020;-49
2023/03/22 10:48:31;;;;;;;22.13;5.07;;;;;;;9.22;100.00;100451.06;5058106;28;20052;-48
2023/03/22 10:50:58;;;;;;;27.15;5.07;;;;;;;9.36;100.00;100446.72;5070192;28;20040;-48
2023/03/22 10:53:30;;;;;;;25.35;4.15;;;;;;;9.38;100.00;100446.53;5065349;28;20031;-48
2023/03/22 10:55:56;;;;;;;28.42;4.65;;;;;;;9.50;100.00;100449.59;5080663;28;20132;-47
2023/03/22 10:58:28;;;;;;;28.98;6.38;;;;;;;9.51;100.00;100451.28;5073279;28;20032;-47
2023/03/22 11:00:56;;;;;;;22.65;4.13;;;;;;;9.56;100.00;100446.19;5082935;28;20091;-49
2023/03/22 11:03:24;;;;;;;52.35;7.25;;;;;;;9.58;100.00;100446.81;5069778;28;20490;-47
2023/03/22 11:06:09;;;;;;;32.25;4.75;;;;;;;9.62;100.00;100453.50;5072093;28;20571;-50
2023/03/22 11:08:53;;;;;;;23.85;5.20;;;;;;;9.65;100.00;100471.94;5077771;28;20131;-51
2023/03/22 11:11:36;;;;;;;26.00;4.63;;;;;;;9.65;100.00;100474.63;5070069;28;20489;-48
2023/03/22 11:14:05;;;;;;;26.10;4.45;;;;;;;9.59;100.00;100461.94;5052268;28;20032;-48
2023/03/22 11:16:31;;;;;;;20.52;4.57;;;;;;;9.58;100.00;100481.75;5068833;28;20050;-50
2023/03/22 11:18:57;;;;;;;27.67;5.10;;;;;;;9.58;100.00;100484.44;5052030;28;20047;-51
2023/03/22 11:21:27;;;;;;;25.80;5.57;;;;;;;9.62;100.00;100483.06;5052336;28;20029;-49
2023/03/22 11:24:03;;;;;;;30.23;6.55;;;;;;;9.60;100.00;100487.78;5051816;28;20469;-49